createdAt,value
2022-08-19T00:01:39.568Z,5.00
2022-08-19T00:04:09.010Z,5.00
2022-08-19T00:06:36.475Z,4.35
2022-08-19T00:09:04.188Z,4.05
2022-08-19T00:11:30.911Z,4.20
2022-08-19T00:13:57.701Z,4.03
2022-08-19T00:16:26.702Z,4.10
2022-08-19T00:18:54.171Z,3.92
2022-08-19T00:21:20.437Z,3.67
2022-08-19T00:23:46.931Z,3.70
2022-08-19T00:26:13.202Z,3.67
2022-08-19T00:28:39.517Z,3.72
2022-08-19T00:31:07.474Z,3.90
2022-08-19T00:33:34.016Z,4.65
2022-08-19T00:36:00.789Z,5.18
2022-08-19T00:38:37.730Z,4.75
2022-08-19T00:41:05.908Z,5.40
2022-08-19T00:43:32.452Z,5.72
2022-08-19T00:45:59.904Z,4.60
2022-08-19T00:48:26.286Z,4.65
2022-08-19T00:50:54.354Z,4.65
2022-08-19T00:53:22.704Z,4.40
2022-08-19T00:55:51.380Z,4.38
2022-08-19T00:58:19.888Z,4.28
2022-08-19T01:00:46.944Z,4.47
2022-08-19T01:03:14.797Z,4.20
2022-08-19T01:05:43.130Z,3.50
2022-08-19T01:08:10.172Z,3.42
2022-08-19T01:11:02.563Z,2.67
2022-08-19T01:13:49.123Z,2.08
2022-08-19T01:16:17.219Z,2.28
2022-08-19T01:18:43.556Z,2.20
2022-08-19T01:21:21.784Z,2.42
2022-08-19T01:23:48.704Z,2.22
2022-08-19T01:26:16.871Z,2.50
2022-08-19T01:28:44.083Z,2.50
2022-08-19T01:31:12.382Z,2.47
2022-08-19T01:33:54.750Z,2.30
2022-08-19T01:36:32.391Z,2.28
2022-08-19T01:39:00.361Z,2.33
2022-08-19T01:41:26.682Z,2.10
2022-08-19T01:44:13.464Z,2.50
2022-08-19T01:46:40.153Z,2.35
2022-08-19T01:49:07.349Z,2.30
2022-08-19T01:51:40.003Z,2.15
2022-08-19T01:54:07.374Z,2.10
2022-08-19T01:56:33.653Z,2.55
2022-08-19T01:59:02.238Z,1.88
2022-08-19T02:01:30.716Z,1.73
2022-08-19T02:03:57.744Z,1.67
2022-08-19T02:06:26.791Z,1.60
2022-08-19T02:08:53.459Z,1.80
2022-08-19T02:11:27.352Z,2.00
2022-08-19T02:13:54.376Z,2.08
2022-08-19T02:16:20.915Z,1.98
2022-08-19T02:18:49.375Z,2.25
2022-08-19T02:21:16.622Z,2.10
2022-08-19T02:23:43.559Z,2.20
2022-08-19T02:26:10.102Z,2.38
2022-08-19T02:28:37.354Z,2.10
2022-08-19T02:31:04.228Z,2.15
2022-08-19T02:33:30.592Z,2.22
2022-08-19T02:35:56.856Z,2.10
2022-08-19T02:38:29.046Z,2.30
2022-08-19T02:41:00.107Z,2.05
2022-08-19T02:43:27.019Z,2.30
2022-08-19T02:45:53.454Z,2.33
2022-08-19T02:48:21.441Z,1.98
2022-08-19T02:50:53.138Z,2.15
2022-08-19T02:53:19.959Z,2.60
2022-08-19T02:55:47.308Z,2.90
2022-08-19T02:58:14.202Z,2.92
2022-08-19T03:00:47.650Z,3.35
2022-08-19T03:03:14.513Z,2.92
2022-08-19T03:05:56.156Z,3.13
2022-08-19T03:08:23.701Z,3.08
2022-08-19T03:10:50.014Z,2.70
2022-08-19T03:13:18.371Z,2.60
2022-08-19T03:15:45.590Z,2.33
2022-08-19T03:18:11.931Z,3.83
2022-08-19T03:20:43.335Z,5.18
2022-08-19T03:23:09.680Z,6.75
2022-08-19T03:25:44.071Z,8.27
2022-08-19T03:28:12.720Z,9.40
2022-08-19T03:30:40.591Z,10.18
2022-08-19T03:33:10.934Z,9.98
2022-08-19T03:35:46.007Z,10.77
2022-08-19T03:38:12.266Z,12.23
2022-08-19T03:40:38.545Z,12.05
2022-08-19T03:43:04.803Z,12.27
2022-08-19T03:45:31.123Z,10.75
2022-08-19T03:47:57.376Z,10.93
2022-08-19T03:50:25.269Z,10.13
2022-08-19T03:52:51.997Z,8.88
2022-08-19T03:55:18.889Z,11.70
2022-08-19T03:57:46.648Z,9.65
2022-08-19T04:00:14.172Z,10.27
2022-08-19T04:02:41.256Z,10.05
2022-08-19T04:05:09.031Z,9.23
2022-08-19T04:07:35.352Z,9.90
2022-08-19T04:10:01.663Z,9.95
2022-08-19T04:12:28.122Z,9.63
2022-08-19T04:14:54.382Z,10.05
2022-08-19T04:17:20.636Z,10.32
2022-08-19T04:19:46.895Z,11.13
2022-08-19T04:22:13.496Z,10.13
2022-08-19T04:24:39.772Z,10.30
2022-08-19T04:27:06.952Z,10.50
2022-08-19T04:29:33.892Z,10.23
2022-08-19T04:32:00.325Z,10.35
2022-08-19T04:34:35.899Z,10.20
2022-08-19T04:37:02.204Z,10.07
2022-08-19T04:39:49.943Z,10.43
2022-08-19T04:42:36.052Z,10.55
2022-08-19T04:45:04.151Z,9.32
2022-08-19T04:47:49.435Z,10.07
2022-08-19T04:50:20.045Z,10.38
2022-08-19T04:52:46.328Z,8.60
2022-08-19T04:55:13.515Z,9.35
2022-08-19T04:57:42.799Z,9.25
2022-08-19T05:00:09.353Z,9.73
2022-08-19T05:02:35.686Z,9.52
2022-08-19T05:05:01.987Z,9.90
2022-08-19T05:07:28.316Z,9.80
2022-08-19T05:09:58.100Z,9.13
2022-08-19T05:14:57.573Z,7.43
2022-08-19T05:17:27.559Z,7.50
2022-08-19T05:20:14.159Z,7.85
2022-08-19T05:22:41.089Z,8.05
2022-08-19T05:25:13.793Z,7.78
2022-08-19T05:27:41.059Z,8.90
2022-08-19T05:30:07.626Z,8.57
2022-08-19T05:32:33.934Z,10.38
2022-08-19T05:35:00.231Z,11.30
2022-08-19T05:37:28.319Z,11.43
2022-08-19T05:39:55.591Z,12.27
2022-08-19T05:42:23.798Z,12.00
2022-08-19T05:44:50.513Z,13.70
2022-08-19T05:47:17.210Z,12.98
2022-08-19T05:49:43.774Z,13.95
2022-08-19T05:52:12.302Z,13.52
2022-08-19T05:54:41.161Z,14.77
2022-08-19T05:57:08.088Z,15.25
2022-08-19T05:59:36.387Z,16.05
2022-08-19T06:02:05.981Z,16.65
2022-08-19T06:04:32.237Z,20.48
2022-08-19T06:06:59.210Z,24.23
2022-08-19T06:09:25.699Z,24.27
2022-08-19T06:11:56.105Z,26.52
2022-08-19T06:14:28.006Z,25.65
2022-08-19T06:16:54.460Z,27.80
2022-08-19T06:19:22.792Z,28.50
2022-08-19T06:21:49.761Z,30.67
2022-08-19T06:24:17.639Z,31.98
2022-08-19T06:29:23.888Z,33.05
2022-08-19T06:31:51.602Z,34.78
2022-08-19T06:34:18.669Z,36.70
2022-08-19T06:36:46.735Z,39.38
2022-08-19T06:39:17.605Z,39.55
2022-08-19T06:41:49.370Z,38.17
2022-08-19T06:44:22.260Z,39.80
2022-08-19T06:46:54.607Z,41.13
2022-08-19T06:49:21.191Z,40.77
2022-08-19T06:51:48.607Z,41.30
2022-08-19T06:54:19.537Z,41.90
2022-08-19T06:56:46.549Z,40.88
2022-08-19T06:59:14.121Z,41.25
2022-08-19T07:01:46.724Z,40.78
2022-08-19T07:04:14.946Z,38.63
2022-08-19T07:06:44.006Z,37.05
2022-08-19T07:09:12.231Z,34.63
2022-08-19T07:11:38.674Z,35.72
2022-08-19T07:14:06.995Z,37.63
2022-08-19T07:16:46.627Z,36.85
2022-08-19T07:19:15.582Z,35.72
2022-08-19T07:21:42.536Z,37.30
2022-08-19T07:24:09.136Z,36.92
2022-08-19T07:26:39.799Z,37.28
2022-08-19T07:29:08.823Z,35.63
2022-08-19T07:31:37.442Z,36.63
2022-08-19T07:34:07.588Z,35.78
2022-08-19T07:36:34.556Z,36.55
2022-08-19T07:39:02.172Z,36.83
2022-08-19T07:41:32.252Z,34.65
2022-08-19T07:44:00.127Z,34.17
2022-08-19T07:46:29.397Z,34.35
2022-08-19T07:48:55.656Z,34.20
2022-08-19T07:51:36.485Z,33.55
2022-08-19T07:56:29.577Z,34.20
2022-08-19T08:01:24.531Z,33.42
2022-08-19T08:04:10.299Z,33.85
2022-08-19T08:06:55.174Z,33.03
2022-08-19T08:09:23.726Z,30.52
2022-08-19T08:11:53.727Z,30.80
2022-08-19T08:14:29.299Z,30.58
2022-08-19T08:16:56.778Z,29.95
2022-08-19T08:19:26.266Z,29.67
2022-08-19T08:21:53.789Z,30.52
2022-08-19T08:24:21.103Z,29.75
2022-08-19T08:26:52.176Z,27.27
2022-08-19T08:29:23.295Z,26.90
2022-08-19T08:31:59.858Z,28.08
2022-08-19T08:34:26.563Z,25.52
2022-08-19T08:36:53.260Z,25.20
2022-08-19T08:39:20.667Z,25.33
2022-08-19T08:42:10.531Z,25.95
2022-08-19T08:45:00.574Z,23.20
2022-08-19T08:47:29.439Z,23.98
2022-08-19T08:49:58.030Z,24.08
2022-08-19T08:52:31.953Z,23.08
2022-08-19T08:55:00.640Z,21.95
2022-08-19T08:57:38.920Z,22.50
2022-08-19T09:02:33.723Z,21.08
2022-08-19T09:04:59.987Z,20.48
2022-08-19T09:07:35.383Z,18.88
2022-08-19T09:10:18.209Z,19.52
2022-08-19T09:12:53.508Z,20.38
2022-08-19T09:15:29.118Z,19.80
2022-08-19T09:18:00.786Z,19.25
2022-08-19T09:20:27.113Z,18.80
2022-08-19T09:22:53.566Z,17.23
2022-08-19T09:25:24.662Z,18.35
2022-08-19T09:28:02.606Z,20.13
2022-08-19T09:30:31.368Z,18.55
2022-08-19T09:32:58.156Z,18.63
2022-08-19T09:35:26.503Z,17.60
2022-08-19T09:37:57.736Z,17.55
2022-08-19T09:40:26.982Z,16.92
2022-08-19T09:42:58.016Z,17.05
2022-08-19T09:45:24.740Z,16.88
2022-08-19T09:47:54.190Z,16.80
2022-08-19T09:50:21.606Z,15.60
2022-08-19T09:52:55.335Z,16.13
2022-08-19T09:55:25.045Z,15.75
2022-08-19T09:57:57.611Z,15.75
2022-08-19T10:00:23.872Z,15.07
2022-08-19T10:02:50.132Z,16.00
2022-08-19T10:05:37.999Z,13.57
2022-08-19T10:08:13.435Z,14.98
2022-08-19T10:10:43.170Z,15.35
2022-08-19T10:13:09.542Z,13.53
2022-08-19T10:15:37.099Z,13.75
2022-08-19T10:18:14.231Z,15.20
2022-08-19T10:20:42.585Z,15.27
2022-08-19T10:23:09.642Z,15.32
2022-08-19T10:25:36.199Z,15.63
2022-08-19T10:28:05.207Z,17.70
2022-08-19T10:30:36.996Z,17.15
2022-08-19T10:33:07.885Z,16.95
2022-08-19T10:35:56.772Z,16.50
2022-08-19T10:38:30.610Z,17.90
2022-08-19T10:40:58.537Z,17.80
2022-08-19T10:43:25.816Z,19.52
2022-08-19T10:46:00.097Z,21.55
2022-08-19T10:48:26.463Z,21.35
2022-08-19T10:51:22.858Z,22.77
2022-08-19T10:53:50.573Z,23.45
2022-08-19T10:56:35.863Z,23.38
2022-08-19T10:59:04.143Z,23.30
2022-08-19T11:01:31.824Z,24.35
2022-08-19T11:03:58.376Z,23.92
2022-08-19T11:06:25.965Z,24.73
2022-08-19T11:08:55.372Z,25.27
2022-08-19T11:11:22.395Z,26.10
2022-08-19T11:13:50.618Z,24.80
2022-08-19T11:16:18.652Z,25.17
2022-08-19T11:18:51.792Z,24.00
2022-08-19T11:21:23.207Z,25.77
2022-08-19T11:23:51.169Z,25.30
2022-08-19T11:26:18.222Z,25.65
2022-08-19T11:28:44.494Z,25.17
2022-08-19T11:31:12.654Z,24.15
2022-08-19T11:33:39.139Z,24.88
2022-08-19T11:36:05.646Z,25.85
2022-08-19T11:38:31.969Z,25.10
2022-08-19T11:40:59.180Z,25.60
2022-08-19T11:43:27.423Z,25.55
2022-08-19T11:45:54.467Z,25.20
2022-08-19T11:48:22.920Z,24.15
2022-08-19T11:50:49.969Z,26.02
2022-08-19T11:53:17.002Z,25.98
2022-08-19T11:55:44.278Z,26.58
2022-08-19T11:58:18.870Z,25.45
2022-08-19T12:00:46.141Z,26.73
2022-08-19T12:03:13.319Z,25.05
2022-08-19T12:05:40.694Z,25.65
2022-08-19T12:08:07.559Z,25.05
2022-08-19T12:10:34.499Z,24.83
2022-08-19T12:13:01.166Z,26.13
2022-08-19T12:15:29.610Z,25.27
2022-08-19T12:18:04.270Z,25.15
2022-08-19T12:20:30.588Z,23.98
2022-08-19T12:22:56.866Z,24.02
2022-08-19T12:25:23.114Z,21.98
2022-08-19T12:27:57.226Z,23.98
2022-08-19T12:30:24.132Z,22.52
2022-08-19T12:32:52.020Z,22.35
2022-08-19T12:35:20.848Z,21.80
2022-08-19T12:37:57.008Z,21.23
2022-08-19T12:40:23.797Z,20.63
2022-08-19T12:42:52.650Z,20.13
2022-08-19T12:45:19.187Z,19.02
2022-08-19T12:47:47.080Z,20.20
2022-08-19T12:50:13.951Z,19.23
2022-08-19T12:52:41.746Z,17.80
2022-08-19T12:55:08.287Z,17.70
2022-08-19T12:57:36.340Z,16.20
2022-08-19T13:00:09.831Z,15.00
2022-08-19T13:02:38.207Z,14.32
2022-08-19T13:05:05.615Z,14.52
2022-08-19T13:07:32.682Z,13.70
2022-08-19T13:09:59.079Z,13.20
2022-08-19T13:12:27.500Z,12.77
2022-08-19T13:14:54.646Z,11.43
2022-08-19T13:17:21.031Z,10.00
2022-08-19T13:19:47.375Z,10.40
2022-08-19T13:22:14.939Z,9.32
2022-08-19T13:24:46.394Z,9.05
2022-08-19T13:27:13.449Z,8.95
2022-08-19T13:29:59.123Z,12.52
2022-08-19T13:32:43.786Z,13.82
2022-08-19T13:35:14.902Z,12.43
2022-08-19T13:37:43.144Z,12.27
2022-08-19T13:40:15.291Z,12.85
2022-08-19T13:42:42.402Z,12.38
2022-08-19T13:45:09.686Z,12.57
2022-08-19T13:47:36.148Z,12.13
2022-08-19T13:50:05.656Z,13.18
2022-08-19T13:52:31.989Z,13.40
2022-08-19T13:54:58.988Z,12.77
2022-08-19T13:57:25.272Z,14.70
2022-08-19T13:59:51.609Z,15.43
2022-08-19T14:02:17.944Z,15.75
2022-08-19T14:04:44.192Z,15.32
2022-08-19T14:07:11.309Z,16.00
2022-08-19T14:09:37.590Z,16.60
2022-08-19T14:12:05.189Z,14.82
2022-08-19T14:14:31.467Z,15.82
2022-08-19T14:16:57.754Z,15.13
2022-08-19T14:19:24.012Z,14.90
2022-08-19T14:21:50.467Z,15.75
2022-08-19T14:24:16.783Z,15.18
2022-08-19T14:26:43.068Z,15.10
2022-08-19T14:29:09.453Z,14.07
2022-08-19T14:31:35.719Z,12.40
2022-08-19T14:34:02.006Z,13.18
2022-08-19T14:36:28.343Z,13.60
2022-08-19T14:38:54.691Z,11.85
2022-08-19T14:41:22.260Z,12.45
2022-08-19T14:43:50.665Z,12.90
2022-08-19T14:46:18.340Z,13.50
2022-08-19T14:48:47.671Z,12.30
2022-08-19T14:51:18.359Z,12.35
2022-08-19T14:53:44.699Z,11.90
2022-08-19T14:56:12.244Z,13.60
2022-08-19T14:58:39.203Z,12.68
2022-08-19T15:01:05.887Z,13.45
2022-08-19T15:03:32.922Z,11.32
2022-08-19T15:06:01.512Z,10.57
2022-08-19T15:08:28.574Z,11.30
2022-08-19T15:10:55.452Z,12.63
2022-08-19T15:13:22.210Z,11.57
2022-08-19T15:15:48.735Z,10.68
2022-08-19T15:18:15.052Z,10.40
2022-08-19T15:20:42.106Z,10.57
2022-08-19T15:23:08.566Z,10.60
2022-08-19T15:25:35.344Z,8.85
2022-08-19T15:28:01.736Z,9.95
2022-08-19T15:30:29.003Z,9.52
2022-08-19T15:32:56.300Z,8.18
2022-08-19T15:35:23.167Z,7.47
2022-08-19T15:37:50.736Z,7.53
2022-08-19T15:40:17.381Z,7.95
2022-08-19T15:42:44.640Z,6.95
2022-08-19T15:45:12.233Z,6.80
2022-08-19T15:47:38.999Z,6.63
2022-08-19T15:50:06.605Z,7.97
2022-08-19T15:52:37.301Z,8.68
2022-08-19T15:55:31.353Z,8.60
2022-08-19T15:58:28.469Z,9.07
2022-08-19T16:01:15.380Z,8.77
2022-08-19T16:04:00.819Z,9.20
2022-08-19T16:06:27.182Z,10.30
2022-08-19T16:08:54.793Z,10.13
2022-08-19T16:11:22.383Z,10.88
2022-08-19T16:13:51.779Z,10.38
2022-08-19T16:16:22.563Z,11.10
2022-08-19T16:18:54.048Z,11.90
2022-08-19T16:21:21.289Z,12.32
2022-08-19T16:23:48.327Z,12.60
2022-08-19T16:26:15.412Z,12.98
2022-08-19T16:28:42.311Z,12.98
2022-08-19T16:31:08.964Z,13.90
2022-08-19T16:33:35.291Z,13.65
2022-08-19T16:36:07.217Z,13.45
2022-08-19T16:38:34.999Z,13.80
2022-08-19T16:41:01.467Z,13.55
2022-08-19T16:43:29.056Z,14.27
2022-08-19T16:45:55.521Z,14.50
2022-08-19T16:48:22.749Z,13.50
2022-08-19T16:50:49.921Z,13.90
2022-08-19T16:53:17.504Z,13.77
2022-08-19T16:55:45.959Z,13.40
2022-08-19T16:58:12.270Z,11.48
2022-08-19T17:00:38.554Z,11.25
2022-08-19T17:03:06.729Z,12.35
2022-08-19T17:05:33.054Z,13.38
2022-08-19T17:07:59.571Z,10.65
2022-08-19T17:10:25.822Z,10.85
2022-08-19T17:12:53.388Z,11.48
2022-08-19T17:15:19.801Z,11.63
2022-08-19T17:17:46.062Z,11.70
2022-08-19T17:20:12.345Z,11.85
2022-08-19T17:22:38.688Z,11.98
2022-08-19T17:25:05.110Z,12.75
2022-08-19T17:27:32.340Z,11.38
2022-08-19T17:29:59.818Z,12.70
2022-08-19T17:32:27.168Z,11.88
2022-08-19T17:34:56.382Z,11.38
2022-08-19T17:37:23.045Z,11.95
2022-08-19T17:39:49.395Z,11.60
2022-08-19T17:42:15.701Z,13.02
2022-08-19T17:44:42.085Z,11.48
2022-08-19T17:47:09.444Z,12.38
2022-08-19T17:49:37.387Z,12.30
2022-08-19T17:52:06.160Z,13.25
2022-08-19T17:54:35.784Z,13.27
2022-08-19T17:57:02.115Z,12.38
2022-08-19T17:59:30.099Z,13.13
2022-08-19T18:01:57.070Z,12.70
2022-08-19T18:04:24.983Z,13.60
2022-08-19T18:06:53.806Z,13.82
2022-08-19T18:09:23.781Z,14.05
2022-08-19T18:11:52.617Z,12.80
2022-08-19T18:14:19.461Z,14.52
2022-08-19T18:16:46.444Z,12.23
2022-08-19T18:19:12.699Z,13.52
2022-08-19T18:21:39.954Z,11.95
2022-08-19T18:24:06.252Z,11.43
2022-08-19T18:26:32.493Z,11.32
2022-08-19T18:28:59.283Z,11.43
2022-08-19T18:31:25.622Z,11.07
2022-08-19T18:33:54.877Z,12.18
2022-08-19T18:36:37.372Z,10.88
2022-08-19T18:39:26.045Z,9.90
2022-08-19T18:42:14.611Z,10.43
2022-08-19T18:45:00.142Z,9.95
2022-08-19T18:47:45.291Z,10.23
2022-08-19T18:50:12.920Z,10.57
2022-08-19T18:52:40.332Z,9.77
2022-08-19T18:55:07.426Z,10.02
2022-08-19T18:57:33.732Z,9.82
2022-08-19T19:00:00.180Z,9.73
2022-08-19T19:02:26.543Z,9.93
2022-08-19T19:04:53.030Z,10.25
2022-08-19T19:07:19.307Z,9.60
2022-08-19T19:09:48.939Z,10.23
2022-08-19T19:12:15.367Z,10.10
2022-08-19T19:14:49.869Z,10.75
2022-08-19T19:17:16.849Z,9.35
2022-08-19T19:19:43.925Z,9.68
2022-08-19T19:22:11.575Z,9.88
2022-08-19T19:24:39.207Z,9.30
2022-08-19T19:27:08.219Z,8.32
2022-08-19T19:29:36.533Z,7.70
2022-08-19T19:32:04.235Z,6.80
2022-08-19T19:34:30.655Z,6.75
2022-08-19T19:36:56.907Z,5.85
2022-08-19T19:39:45.056Z,5.28
2022-08-19T19:42:12.520Z,5.18
2022-08-19T19:44:48.077Z,4.75
2022-08-19T19:47:15.500Z,4.43
2022-08-19T19:50:03.812Z,5.05
2022-08-19T19:52:28.102Z,4.35
2022-08-19T19:54:56.897Z,4.15
2022-08-19T19:57:26.777Z,4.03
2022-08-19T19:59:54.054Z,4.70
2022-08-19T20:02:21.831Z,4.20
2022-08-19T20:04:48.712Z,4.40
2022-08-19T20:07:14.984Z,4.57
2022-08-19T20:09:58.902Z,4.93
2022-08-19T20:12:26.221Z,4.55
2022-08-19T20:14:52.463Z,4.40
2022-08-19T20:17:20.307Z,4.60
2022-08-19T20:19:47.729Z,4.65
2022-08-19T20:22:14.185Z,5.20
2022-08-19T20:24:42.318Z,5.57
2022-08-19T20:27:09.012Z,5.35
2022-08-19T20:29:38.713Z,5.90
2022-08-19T20:32:06.687Z,5.90
2022-08-19T20:34:33.702Z,5.78
2022-08-19T20:36:59.955Z,5.93
2022-08-19T20:39:26.202Z,6.43
2022-08-19T20:41:52.563Z,6.20
2022-08-19T20:44:18.878Z,8.82
2022-08-19T20:46:54.550Z,8.45
2022-08-19T20:49:22.978Z,8.15
2022-08-19T20:51:54.415Z,8.95
2022-08-19T20:54:20.691Z,9.07
2022-08-19T20:56:46.944Z,9.25
2022-08-19T20:59:13.204Z,8.38
2022-08-19T21:01:39.680Z,9.43
2022-08-19T21:04:06.067Z,8.50
2022-08-19T21:06:32.333Z,8.80
2022-08-19T21:08:58.603Z,7.93
2022-08-19T21:11:24.880Z,9.20
2022-08-19T21:13:51.199Z,9.07
2022-08-19T21:16:17.528Z,8.55
2022-08-19T21:18:43.829Z,8.93
2022-08-19T21:21:10.096Z,10.27
2022-08-19T21:23:36.362Z,9.15
2022-08-19T21:26:02.706Z,9.27
2022-08-19T21:28:35.490Z,9.60
2022-08-19T21:31:03.937Z,10.00
2022-08-19T21:33:33.174Z,9.30
2022-08-19T21:35:59.971Z,10.13
2022-08-19T21:38:26.334Z,9.25
2022-08-19T21:40:52.609Z,9.25
2022-08-19T21:43:18.927Z,9.32
2022-08-19T21:45:46.232Z,10.23
2022-08-19T21:48:14.503Z,9.73
2022-08-19T21:50:41.324Z,9.43
2022-08-19T21:53:07.803Z,10.25
2022-08-19T21:55:37.816Z,10.35
2022-08-19T21:58:04.403Z,10.30
2022-08-19T22:00:32.214Z,9.80
2022-08-19T22:02:58.582Z,10.70
2022-08-19T22:05:25.607Z,10.90
2022-08-19T22:07:52.745Z,11.00
2022-08-19T22:10:19.560Z,10.48
2022-08-19T22:12:51.477Z,11.70
2022-08-19T22:15:20.336Z,11.07
2022-08-19T22:17:46.768Z,10.70
2022-08-19T22:20:14.728Z,10.82
2022-08-19T22:22:45.716Z,11.02
2022-08-19T22:25:13.589Z,10.90
2022-08-19T22:27:57.432Z,11.52
2022-08-19T22:30:26.949Z,9.90
2022-08-19T22:33:00.986Z,9.68
2022-08-19T22:35:31.207Z,10.52
2022-08-19T22:37:58.817Z,11.07
2022-08-19T22:40:25.998Z,9.80
2022-08-19T22:43:03.398Z,10.98
2022-08-19T22:45:30.178Z,10.60
2022-08-19T22:47:56.967Z,10.68
2022-08-19T22:50:23.899Z,10.05
2022-08-19T22:52:54.729Z,10.52
2022-08-19T22:55:21.013Z,11.05
2022-08-19T22:57:47.779Z,11.07
2022-08-19T23:00:14.711Z,11.60
2022-08-19T23:02:51.935Z,11.95
2022-08-19T23:05:18.935Z,12.07
2022-08-19T23:07:53.577Z,11.30
2022-08-19T23:10:27.563Z,10.52
2022-08-19T23:12:54.576Z,11.63
2022-08-19T23:15:25.846Z,11.85
2022-08-19T23:17:53.132Z,11.85
2022-08-19T23:20:20.095Z,11.18
2022-08-19T23:22:49.509Z,12.77
2022-08-19T23:25:18.143Z,11.95
2022-08-19T23:28:03.766Z,11.63
2022-08-19T23:30:31.215Z,11.05
2022-08-19T23:33:13.137Z,11.82
2022-08-19T23:35:40.875Z,11.65
2022-08-19T23:38:08.007Z,11.20
2022-08-19T23:40:35.383Z,11.48
2022-08-19T23:43:02.690Z,11.45
2022-08-19T23:45:38.206Z,11.50
2022-08-19T23:48:05.298Z,11.60
2022-08-19T23:50:32.468Z,11.43
2022-08-19T23:52:59.643Z,11.95
2022-08-19T23:55:28.028Z,12.60
2022-08-19T23:57:54.411Z,12.20
